Time;durP1;ratioP1;P1;durP2;ratioP2;P2;SDS_P1;SDS_P2;PMS_P1;PMS_P2;Temp;Humidity;BMP_temperature;BMP_pressure;BME280_temperature;BME280_humidity;BME280_pressure;Samples;Min_cycle;Max_cycle;Signal;HPM_P1;HPM_P2
2021/09/26 00:01:53;;;;;;;12.23;10.15;;;15.10;92.90;;;;;;4940425;28;20143;-59
2021/09/26 00:04:20;;;;;;;12.60;11.27;;;15.10;92.90;;;;;;4941111;28;20049;-60
2021/09/26 00:06:47;;;;;;;12.45;11.25;;;15.00;93.00;;;;;;4944691;28;20497;-60
2021/09/26 00:09:15;;;;;;;13.77;10.70;;;15.10;93.00;;;;;;4946733;28;20078;-60
2021/09/26 00:11:42;;;;;;;13.32;10.10;;;15.00;92.90;;;;;;4947183;28;20134;-60
2021/09/26 00:14:09;;;;;;;14.38;10.15;;;15.10;92.90;;;;;;4946213;28;20173;-60
2021/09/26 00:16:35;;;;;;;13.93;10.68;;;15.10;93.00;;;;;;4945588;28;20082;-60
2021/09/26 00:19:03;;;;;;;13.73;9.05;;;15.10;93.00;;;;;;4948021;28;20051;-60
2021/09/26 00:21:30;;;;;;;12.30;9.65;;;15.10;93.00;;;;;;4942727;29;20146;-61
2021/09/26 00:23:57;;;;;;;12.18;9.90;;;15.10;93.00;;;;;;4945281;28;20051;-60
2021/09/26 00:26:24;;;;;;;12.13;9.50;;;15.20;93.10;;;;;;4945723;29;20604;-60
2021/09/26 00:28:51;;;;;;;13.25;10.35;;;15.10;93.10;;;;;;4946851;29;20134;-60
2021/09/26 00:31:18;;;;;;;11.95;9.80;;;15.10;93.00;;;;;;4946947;28;20075;-60
2021/09/26 00:33:45;;;;;;;14.32;10.93;;;15.10;93.10;;;;;;4947013;28;20044;-60
2021/09/26 00:36:11;;;;;;;16.50;10.77;;;15.10;93.10;;;;;;4946989;28;20133;-60
2021/09/26 00:38:38;;;;;;;11.65;10.02;;;15.20;93.00;;;;;;4946572;28;20131;-60
2021/09/26 00:41:05;;;;;;;11.57;10.38;;;15.20;93.00;;;;;;4946573;29;20085;-60
2021/09/26 00:43:32;;;;;;;12.18;10.15;;;15.10;92.90;;;;;;4946040;28;20590;-60
2021/09/26 00:45:58;;;;;;;11.82;8.85;;;15.20;93.00;;;;;;4946786;28;20063;-60
2021/09/26 00:48:25;;;;;;;12.82;10.88;;;15.10;92.90;;;;;;4946018;28;20051;-60
2021/09/26 00:50:55;;;;;;;15.27;9.80;;;15.20;93.00;;;;;;4947703;28;20589;-60
2021/09/26 00:53:22;;;;;;;11.13;9.93;;;15.20;93.10;;;;;;4945555;28;20111;-60
2021/09/26 00:55:49;;;;;;;12.00;9.55;;;15.10;92.90;;;;;;4947573;28;20584;-60
2021/09/26 00:58:16;;;;;;;11.48;8.98;;;15.20;92.90;;;;;;4928201;29;20563;-60
2021/09/26 01:00:43;;;;;;;12.13;9.88;;;15.10;92.90;;;;;;4946563;28;20138;-60
2021/09/26 01:03:09;;;;;;;10.32;8.98;;;15.10;92.90;;;;;;4946241;28;20471;-61
2021/09/26 01:05:36;;;;;;;12.10;10.05;;;15.10;93.10;;;;;;4946460;28;20159;-60
2021/09/26 01:08:13;;;;;;;11.82;9.25;;;15.10;93.20;;;;;;4945731;28;20142;-60
2021/09/26 01:10:46;;;;;;;12.20;9.23;;;15.10;93.30;;;;;;4945596;29;20075;-60
2021/09/26 01:13:22;;;;;;;14.40;10.00;;;15.10;93.30;;;;;;4946467;28;20670;-60
2021/09/26 01:16:06;;;;;;;14.00;10.45;;;15.10;93.30;;;;;;4946851;28;20075;-60
2021/09/26 01:18:44;;;;;;;11.40;10.13;;;15.10;93.50;;;;;;4942482;29;20114;-60
2021/09/26 01:21:33;;;;;;;13.40;9.77;;;15.10;93.30;;;;;;4945214;29;20078;-60
2021/09/26 01:24:37;;;;;;;13.27;10.63;;;15.10;93.30;;;;;;4945644;28;20138;-60
2021/09/26 01:27:29;;;;;;;11.93;10.38;;;15.10;93.50;;;;;;4946051;28;20099;-60
2021/09/26 01:30:21;;;;;;;13.40;10.05;;;15.20;93.50;;;;;;4944186;29;20155;-60
2021/09/26 01:33:13;;;;;;;13.15;11.27;;;15.20;93.50;;;;;;4945549;28;20182;-60
2021/09/26 01:35:50;;;;;;;13.38;11.73;;;15.10;93.80;;;;;;4970921;28;20079;-60
2021/09/26 01:38:25;;;;;;;15.45;11.55;;;15.10;93.50;;;;;;4931692;29;20632;-60
2021/09/26 01:40:55;;;;;;;14.13;11.30;;;15.10;93.50;;;;;;4947162;28;20142;-60
2021/09/26 01:43:27;;;;;;;13.57;12.13;;;15.20;93.40;;;;;;4946310;29;20147;-60
2021/09/26 01:45:56;;;;;;;13.18;10.98;;;15.20;93.30;;;;;;4948229;28;20150;-60
2021/09/26 01:48:27;;;;;;;14.30;11.48;;;15.10;93.30;;;;;;4929187;29;20059;-60
2021/09/26 01:50:57;;;;;;;15.38;11.90;;;15.10;93.50;;;;;;4947090;28;20102;-60
2021/09/26 01:53:24;;;;;;;12.65;11.32;;;15.10;93.40;;;;;;4945935;29;20099;-60
2021/09/26 01:55:51;;;;;;;13.45;12.05;;;15.10;93.30;;;;;;4930349;29;20043;-60
2021/09/26 01:58:18;;;;;;;17.42;12.05;;;15.10;93.30;;;;;;4945461;29;20075;-60
2021/09/26 02:00:45;;;;;;;15.13;12.40;;;15.10;93.30;;;;;;4946671;29;20142;-61
2021/09/26 02:03:12;;;;;;;15.15;13.27;;;15.10;93.30;;;;;;4945864;29;20056;-60
2021/09/26 02:05:40;;;;;;;14.93;12.95;;;15.10;93.40;;;;;;4947352;28;20071;-60
2021/09/26 02:08:07;;;;;;;15.00;12.25;;;15.10;93.60;;;;;;4947262;28;20142;-61
2021/09/26 02:10:35;;;;;;;13.35;11.80;;;15.10;93.50;;;;;;4962442;28;20049;-61
2021/09/26 02:13:02;;;;;;;17.02;13.88;;;15.10;93.60;;;;;;4946942;28;20091;-60
2021/09/26 02:15:29;;;;;;;14.95;12.52;;;15.10;93.50;;;;;;4947958;28;20051;-60
2021/09/26 02:17:56;;;;;;;16.92;13.18;;;15.10;93.50;;;;;;4929222;29;20078;-60
2021/09/26 02:20:22;;;;;;;17.73;13.65;;;15.10;93.50;;;;;;4978706;28;20055;-61
2021/09/26 02:22:49;;;;;;;14.95;13.35;;;15.20;93.50;;;;;;4977668;28;20490;-60
2021/09/26 02:25:18;;;;;;;16.90;14.43;;;15.20;93.50;;;;;;4947369;28;20070;-60
2021/09/26 02:27:44;;;;;;;19.88;14.77;;;15.10;93.50;;;;;;4945537;29;20130;-61
2021/09/26 02:30:11;;;;;;;17.65;13.25;;;15.20;93.60;;;;;;4945727;28;20075;-60
2021/09/26 02:32:38;;;;;;;16.55;14.85;;;15.20;93.60;;;;;;4946722;28;20071;-60
2021/09/26 02:35:06;;;;;;;18.23;14.00;;;15.20;93.60;;;;;;4947470;28;20051;-60
2021/09/26 02:37:33;;;;;;;17.00;14.20;;;15.20;93.60;;;;;;4947327;28;20078;-60
2021/09/26 02:40:00;;;;;;;17.08;13.60;;;15.20;93.70;;;;;;4947074;28;20523;-60
2021/09/26 02:42:31;;;;;;;16.65;14.75;;;15.20;93.60;;;;;;4945721;28;20101;-60
2021/09/26 02:45:09;;;;;;;17.10;14.77;;;15.30;93.60;;;;;;4946884;28;20117;-60
2021/09/26 02:47:56;;;;;;;18.65;15.13;;;15.30;93.70;;;;;;4945856;28;20586;-60
2021/09/26 02:50:22;;;;;;;17.90;15.25;;;15.30;93.70;;;;;;4931882;29;20079;-60
2021/09/26 02:52:49;;;;;;;16.02;14.02;;;15.30;93.60;;;;;;4942916;29;20134;-60
2021/09/26 02:55:16;;;;;;;18.85;14.65;;;15.30;93.50;;;;;;4929936;29;20137;-60
2021/09/26 02:57:43;;;;;;;19.55;14.90;;;15.30;93.50;;;;;;4946123;29;20308;-60
2021/09/26 03:00:10;;;;;;;20.08;15.95;;;15.30;93.60;;;;;;4946195;28;20078;-60
2021/09/26 03:02:37;;;;;;;19.13;15.57;;;15.40;93.50;;;;;;4946204;28;20411;-60
2021/09/26 03:05:06;;;;;;;18.20;15.15;;;15.40;93.60;;;;;;4946968;28;20089;-60
2021/09/26 03:07:33;;;;;;;19.13;15.45;;;15.40;93.60;;;;;;4946468;28;20043;-60
2021/09/26 03:10:00;;;;;;;16.27;14.55;;;15.40;93.50;;;;;;4946916;29;20079;-60
2021/09/26 03:12:27;;;;;;;16.83;14.50;;;15.40;93.50;;;;;;4946539;28;20138;-61
2021/09/26 03:14:54;;;;;;;14.00;12.50;;;15.40;93.50;;;;;;4945837;28;20465;-60
2021/09/26 03:17:20;;;;;;;15.20;13.50;;;15.40;93.40;;;;;;4945700;28;20130;-60
2021/09/26 03:19:47;;;;;;;16.75;14.18;;;15.40;93.40;;;;;;4946671;28;20134;-60
2021/09/26 03:22:14;;;;;;;19.85;15.23;;;15.40;93.50;;;;;;4945912;28;20135;-60
2021/09/26 03:24:41;;;;;;;17.55;14.25;;;15.40;93.50;;;;;;4946219;28;20502;-60
2021/09/26 03:27:12;;;;;;;17.15;14.45;;;15.50;93.50;;;;;;4945186;29;20153;-60
2021/09/26 03:29:41;;;;;;;15.52;12.93;;;15.40;93.40;;;;;;4946329;28;20102;-61
2021/09/26 03:32:07;;;;;;;17.40;14.35;;;15.40;93.50;;;;;;4945502;28;20102;-60
2021/09/26 03:34:34;;;;;;;18.25;14.68;;;15.40;93.50;;;;;;4946432;28;20141;-60
2021/09/26 03:37:01;;;;;;;16.17;14.38;;;15.50;93.50;;;;;;4946029;28;20134;-61
2021/09/26 03:39:28;;;;;;;17.40;12.73;;;15.50;93.40;;;;;;4945714;28;20047;-60
2021/09/26 03:41:55;;;;;;;17.75;13.80;;;15.50;93.50;;;;;;4945433;28;20093;-61
2021/09/26 03:44:22;;;;;;;22.27;15.32;;;15.50;93.50;;;;;;4945229;28;20087;-60
2021/09/26 03:46:48;;;;;;;18.83;15.13;;;15.50;93.40;;;;;;4945525;28;20098;-61
2021/09/26 03:49:15;;;;;;;17.30;15.23;;;15.50;93.40;;;;;;4945673;28;20134;-60
2021/09/26 03:51:42;;;;;;;18.48;15.00;;;15.50;93.40;;;;;;4945779;28;20085;-60
2021/09/26 03:54:09;;;;;;;15.82;13.70;;;15.50;93.50;;;;;;4946479;28;20062;-60
2021/09/26 03:56:36;;;;;;;19.45;15.27;;;15.50;93.50;;;;;;4945818;28;20047;-60
2021/09/26 03:59:02;;;;;;;19.13;15.55;;;15.50;93.50;;;;;;4945494;29;20082;-60
2021/09/26 04:01:29;;;;;;;14.65;13.15;;;15.50;93.50;;;;;;4945209;28;20130;-60
2021/09/26 04:03:56;;;;;;;18.85;14.07;;;15.40;93.50;;;;;;4945631;28;20120;-60
2021/09/26 04:06:23;;;;;;;17.17;14.60;;;15.50;93.60;;;;;;4945950;28;20082;-60
2021/09/26 04:08:50;;;;;;;16.73;14.82;;;15.40;93.60;;;;;;4945817;29;20138;-60
2021/09/26 04:11:18;;;;;;;19.17;15.50;;;15.40;93.70;;;;;;4946055;29;20146;-60
2021/09/26 04:13:45;;;;;;;16.08;14.35;;;15.50;93.80;;;;;;4945749;28;20923;-60
2021/09/26 04:16:11;;;;;;;19.20;15.00;;;15.50;93.70;;;;;;4946349;28;20145;-60
2021/09/26 04:18:38;;;;;;;18.95;15.40;;;15.50;93.70;;;;;;4945255;28;20126;-61
2021/09/26 04:21:05;;;;;;;20.98;16.42;;;15.50;93.60;;;;;;4944807;29;20135;-60
2021/09/26 04:23:32;;;;;;;20.23;15.35;;;15.50;93.70;;;;;;4945449;28;20523;-60
2021/09/26 04:25:59;;;;;;;18.90;15.77;;;15.40;93.70;;;;;;4945740;28;20081;-60
2021/09/26 04:28:26;;;;;;;17.77;15.98;;;15.40;93.60;;;;;;4944927;28;20142;-61
2021/09/26 04:30:52;;;;;;;18.95;15.55;;;15.40;93.70;;;;;;4946119;29;20089;-60
2021/09/26 04:33:19;;;;;;;19.45;16.25;;;15.40;93.80;;;;;;4944440;28;20066;-60
2021/09/26 04:35:46;;;;;;;23.52;16.02;;;15.40;93.70;;;;;;4945311;28;20051;-60
2021/09/26 04:38:13;;;;;;;24.58;17.95;;;15.40;93.80;;;;;;4946944;28;20134;-60
2021/09/26 04:40:41;;;;;;;21.80;17.35;;;15.40;93.80;;;;;;4949428;29;20094;-60
2021/09/26 04:43:08;;;;;;;20.17;17.40;;;15.30;93.70;;;;;;4943550;28;20102;-60
2021/09/26 04:45:35;;;;;;;23.00;17.95;;;15.40;93.70;;;;;;4945259;28;20522;-61
2021/09/26 04:48:01;;;;;;;19.23;16.98;;;15.30;93.60;;;;;;4942231;29;20162;-60
2021/09/26 04:50:28;;;;;;;20.70;17.40;;;15.30;93.70;;;;;;4941598;28;20110;-60
2021/09/26 04:52:55;;;;;;;22.00;17.58;;;15.30;93.90;;;;;;4944454;28;20059;-60
2021/09/26 04:55:26;;;;;;;23.70;17.85;;;15.20;93.90;;;;;;4940793;29;20138;-61
2021/09/26 04:57:54;;;;;;;21.08;18.63;;;15.20;94.00;;;;;;4941787;28;20518;-60
2021/09/26 05:00:21;;;;;;;21.25;18.23;;;15.10;94.00;;;;;;4941246;28;20457;-60
2021/09/26 05:02:48;;;;;;;22.83;18.50;;;15.10;93.90;;;;;;4970920;28;20051;-61
2021/09/26 05:05:15;;;;;;;22.10;17.00;;;15.10;94.00;;;;;;4940109;28;20538;-60
2021/09/26 05:07:42;;;;;;;20.95;17.30;;;15.10;94.10;;;;;;4943199;28;20382;-61
2021/09/26 05:10:09;;;;;;;22.65;18.10;;;15.10;94.10;;;;;;4943321;28;20536;-60
2021/09/26 05:12:36;;;;;;;20.40;18.05;;;15.10;94.20;;;;;;4941191;28;20127;-60
2021/09/26 05:15:04;;;;;;;21.50;17.02;;;15.00;94.60;;;;;;4941584;29;20055;-61
2021/09/26 05:17:32;;;;;;;21.63;17.83;;;15.00;94.10;;;;;;4942253;28;20133;-60
2021/09/26 05:19:58;;;;;;;25.50;18.85;;;15.00;94.20;;;;;;4942591;29;20142;-60
2021/09/26 05:22:26;;;;;;;21.90;18.35;;;15.00;94.10;;;;;;4943268;28;20082;-61
2021/09/26 05:24:53;;;;;;;19.15;17.13;;;15.00;94.10;;;;;;4944012;28;20058;-60
2021/09/26 05:27:20;;;;;;;23.60;18.02;;;15.00;94.20;;;;;;4943119;28;20134;-60
2021/09/26 05:29:46;;;;;;;20.90;16.77;;;14.90;94.10;;;;;;4941331;29;20086;-60
2021/09/26 05:32:13;;;;;;;22.85;17.98;;;14.90;94.00;;;;;;4942464;28;20150;-60
2021/09/26 05:34:40;;;;;;;22.65;16.85;;;14.80;94.10;;;;;;4942428;28;20506;-60
2021/09/26 05:37:07;;;;;;;23.85;18.85;;;14.80;94.20;;;;;;4942983;28;20138;-61
2021/09/26 05:39:33;;;;;;;22.75;17.75;;;14.80;94.10;;;;;;4925915;29;20052;-61
2021/09/26 05:42:03;;;;;;;20.95;16.77;;;14.80;94.10;;;;;;4943575;28;20078;-60
2021/09/26 05:44:31;;;;;;;21.15;16.95;;;14.80;94.00;;;;;;4942469;28;20086;-61
2021/09/26 05:46:58;;;;;;;22.73;16.45;;;14.80;94.10;;;;;;4941875;28;20055;-61
2021/09/26 05:49:24;;;;;;;18.73;15.80;;;14.80;93.90;;;;;;4942852;28;20510;-60
2021/09/26 05:51:51;;;;;;;21.52;16.80;;;14.80;93.90;;;;;;4942710;28;20110;-61
2021/09/26 05:54:19;;;;;;;20.38;16.80;;;14.70;93.90;;;;;;4943088;28;20083;-61
2021/09/26 05:56:46;;;;;;;22.88;18.88;;;14.70;94.20;;;;;;4940502;29;20109;-61
2021/09/26 05:59:13;;;;;;;22.27;16.95;;;14.70;94.20;;;;;;4942067;28;20154;-60
2021/09/26 06:01:39;;;;;;;21.45;17.30;;;14.70;94.20;;;;;;4941535;28;20074;-60
2021/09/26 06:04:06;;;;;;;21.52;17.30;;;14.80;94.30;;;;;;4943144;28;20453;-60
2021/09/26 06:06:33;;;;;;;19.23;16.17;;;14.80;94.20;;;;;;4942423;28;20135;-61
2021/09/26 06:09:00;;;;;;;23.00;18.05;;;14.80;94.20;;;;;;4943080;28;20137;-61
2021/09/26 06:11:27;;;;;;;20.65;16.85;;;14.90;94.00;;;;;;4942016;28;20554;-60
2021/09/26 06:13:53;;;;;;;21.25;16.05;;;14.90;94.00;;;;;;4941827;28;20055;-61
2021/09/26 06:16:20;;;;;;;20.02;17.38;;;14.90;94.10;;;;;;4942314;29;20075;-60
2021/09/26 06:18:47;;;;;;;21.13;17.20;;;15.00;94.20;;;;;;4940645;29;20134;-60
2021/09/26 06:21:13;;;;;;;21.75;17.83;;;15.00;94.30;;;;;;4942835;28;20413;-60
2021/09/26 06:23:40;;;;;;;23.00;18.75;;;15.10;94.40;;;;;;4941439;28;20459;-60
2021/09/26 06:26:07;;;;;;;22.25;18.10;;;15.10;94.40;;;;;;4942218;28;20138;-60
2021/09/26 06:28:34;;;;;;;22.15;18.02;;;15.20;94.30;;;;;;4941757;28;20106;-61
2021/09/26 06:31:00;;;;;;;24.27;18.85;;;15.30;94.40;;;;;;4942560;28;20142;-60
2021/09/26 06:33:27;;;;;;;26.92;20.38;;;15.30;94.70;;;;;;4941097;29;20234;-61
2021/09/26 06:35:54;;;;;;;25.73;19.75;;;15.40;94.90;;;;;;4941615;28;20499;-60
2021/09/26 06:38:21;;;;;;;29.98;22.75;;;15.40;94.80;;;;;;4941477;28;20105;-60
2021/09/26 06:40:48;;;;;;;32.22;25.30;;;15.50;95.30;;;;;;4944635;28;20601;-61
2021/09/26 06:43:14;;;;;;;33.40;25.27;;;15.70;95.60;;;;;;4943696;28;20102;-60
2021/09/26 06:45:41;;;;;;;34.22;23.67;;;15.70;95.70;;;;;;4941485;28;20094;-61
2021/09/26 06:48:08;;;;;;;39.28;28.00;;;15.80;96.10;;;;;;4939649;28;20054;-61
2021/09/26 06:50:35;;;;;;;42.35;30.20;;;16.00;96.30;;;;;;4938376;29;20142;-60
2021/09/26 06:53:01;;;;;;;45.72;29.92;;;16.10;96.70;;;;;;4940496;28;20150;-61
2021/09/26 06:55:30;;;;;;;43.47;29.38;;;16.20;96.70;;;;;;4941720;28;20058;-61
2021/09/26 06:57:57;;;;;;;44.80;29.63;;;16.40;96.70;;;;;;4940800;28;20264;-61
2021/09/26 07:00:23;;;;;;;44.53;31.17;;;16.50;96.50;;;;;;4940383;28;20134;-61
2021/09/26 07:02:52;;;;;;;42.67;29.83;;;16.60;96.50;;;;;;4932693;29;20134;-61
2021/09/26 07:05:19;;;;;;;44.65;30.05;;;16.70;96.40;;;;;;4950520;28;20377;-62
2021/09/26 07:07:48;;;;;;;46.13;30.38;;;16.80;96.20;;;;;;4953308;28;20133;-61
2021/09/26 07:10:15;;;;;;;44.72;30.52;;;17.00;96.00;;;;;;4960010;28;20047;-60
2021/09/26 07:12:41;;;;;;;44.85;30.05;;;17.10;95.90;;;;;;4974780;28;20089;-61
2021/09/26 07:15:09;;;;;;;42.08;29.05;;;17.20;95.60;;;;;;4954737;28;20055;-61
2021/09/26 07:17:35;;;;;;;41.05;28.60;;;17.40;95.50;;;;;;4958223;28;20138;-62
2021/09/26 07:20:02;;;;;;;45.60;29.15;;;17.50;95.30;;;;;;4958686;28;20062;-61
2021/09/26 07:22:29;;;;;;;39.60;28.70;;;17.60;95.20;;;;;;4959724;28;20046;-61
2021/09/26 07:24:57;;;;;;;43.28;29.55;;;17.70;95.00;;;;;;4959968;28;20086;-61
2021/09/26 07:27:24;;;;;;;40.10;29.35;;;17.80;94.80;;;;;;4960039;28;20086;-61
2021/09/26 07:29:54;;;;;;;38.00;27.05;;;17.80;94.60;;;;;;4958539;28;20051;-61
2021/09/26 07:32:21;;;;;;;39.88;27.92;;;17.90;94.60;;;;;;4959373;28;20125;-61
2021/09/26 07:34:47;;;;;;;39.53;28.40;;;17.90;94.60;;;;;;4958240;28;20125;-61
2021/09/26 07:37:14;;;;;;;35.72;27.17;;;18.00;94.30;;;;;;4960349;28;20051;-62
2021/09/26 07:39:41;;;;;;;41.83;28.27;;;18.10;94.20;;;;;;4960342;28;20097;-61
2021/09/26 07:42:08;;;;;;;38.08;28.73;;;18.20;94.20;;;;;;4958894;28;20134;-61
2021/09/26 07:44:35;;;;;;;38.03;26.60;;;18.20;94.10;;;;;;4959386;28;20569;-61
2021/09/26 07:47:01;;;;;;;36.55;26.33;;;18.20;94.10;;;;;;4958552;28;20090;-61
2021/09/26 07:49:28;;;;;;;34.65;25.48;;;18.30;93.90;;;;;;4960426;28;20093;-62
2021/09/26 07:51:55;;;;;;;38.03;28.23;;;18.40;93.80;;;;;;4959585;28;20142;-62
2021/09/26 07:54:22;;;;;;;34.65;26.52;;;18.50;93.70;;;;;;4960524;28;20083;-62
2021/09/26 07:56:48;;;;;;;31.13;24.13;;;18.50;93.20;;;;;;4959011;28;20462;-62
2021/09/26 07:59:15;;;;;;;38.20;27.70;;;18.50;93.30;;;;;;4958446;28;20138;-61
2021/09/26 08:01:42;;;;;;;32.47;24.98;;;18.60;93.40;;;;;;4958750;28;21056;-62
2021/09/26 08:04:09;;;;;;;34.60;26.00;;;18.60;93.10;;;;;;4954072;28;20109;-61
2021/09/26 08:06:36;;;;;;;33.72;23.88;;;18.60;93.10;;;;;;4946286;28;20173;-61
2021/09/26 08:09:03;;;;;;;33.45;25.00;;;18.60;93.10;;;;;;4958527;28;20503;-62
2021/09/26 08:11:30;;;;;;;30.73;24.27;;;18.60;92.90;;;;;;4956556;28;20074;-61
2021/09/26 08:13:57;;;;;;;31.48;23.67;;;18.70;93.00;;;;;;4951354;28;20059;-61
2021/09/26 08:16:24;;;;;;;31.27;25.02;;;18.80;93.00;;;;;;4953599;28;20443;-61
2021/09/26 08:18:50;;;;;;;29.10;24.17;;;18.90;92.80;;;;;;4958111;28;20360;-62
2021/09/26 08:21:17;;;;;;;29.85;24.05;;;18.90;92.80;;;;;;4955090;28;20053;-61
2021/09/26 08:23:44;;;;;;;31.83;23.65;;;19.00;92.60;;;;;;4952761;28;20057;-62
2021/09/26 08:26:11;;;;;;;28.60;23.25;;;19.10;92.60;;;;;;4959000;28;20170;-61
2021/09/26 08:28:38;;;;;;;27.60;21.58;;;19.20;92.20;;;;;;4962245;28;20141;-61
2021/09/26 08:31:06;;;;;;;27.95;22.00;;;19.20;92.30;;;;;;4964001;28;20508;-61
2021/09/26 08:33:33;;;;;;;23.70;20.95;;;19.30;92.30;;;;;;4961977;28;20316;-61
2021/09/26 08:35:59;;;;;;;26.52;21.20;;;19.30;92.20;;;;;;4961858;28;20130;-61
2021/09/26 08:38:26;;;;;;;25.60;21.02;;;19.20;91.90;;;;;;4962692;28;20082;-62
2021/09/26 08:40:53;;;;;;;25.48;21.20;;;19.30;92.00;;;;;;4963259;28;20486;-61
2021/09/26 08:43:20;;;;;;;25.20;19.70;;;19.20;92.00;;;;;;4955434;28;20083;-62
2021/09/26 08:45:47;;;;;;;25.73;19.60;;;19.30;92.20;;;;;;4956483;28;20109;-61
2021/09/26 08:48:14;;;;;;;25.25;18.83;;;19.30;91.70;;;;;;4956888;28;20098;-60
2021/09/26 08:50:42;;;;;;;22.65;17.67;;;19.20;91.80;;;;;;4963994;28;20054;-61
2021/09/26 08:53:09;;;;;;;23.33;19.70;;;19.20;91.90;;;;;;4964278;28;20093;-62
2021/09/26 08:55:35;;;;;;;22.98;19.23;;;19.20;91.80;;;;;;4965625;28;20134;-61
2021/09/26 08:58:03;;;;;;;22.63;19.27;;;19.10;91.80;;;;;;4965438;28;20663;-61
2021/09/26 09:00:30;;;;;;;23.73;18.17;;;19.10;91.90;;;;;;4965554;28;20109;-61
2021/09/26 09:02:58;;;;;;;24.33;18.85;;;19.10;92.00;;;;;;4963068;28;20815;-61
2021/09/26 09:05:29;;;;;;;22.65;19.02;;;19.10;92.10;;;;;;4956076;28;20047;-61
2021/09/26 09:08:16;;;;;;;21.60;17.38;;;19.00;91.90;;;;;;4963915;28;20055;-62
2021/09/26 09:10:51;;;;;;;27.75;18.40;;;19.10;92.10;;;;;;4961042;28;20085;-61
2021/09/26 09:13:29;;;;;;;24.08;18.52;;;19.10;91.90;;;;;;4963956;28;20047;-62
2021/09/26 09:16:06;;;;;;;24.52;18.35;;;19.20;91.80;;;;;;4964642;28;20053;-62
2021/09/26 09:18:47;;;;;;;23.63;17.08;;;19.20;91.70;;;;;;4962520;28;20106;-61
2021/09/26 09:21:19;;;;;;;21.83;16.48;;;19.20;91.60;;;;;;4966353;28;20055;-62
2021/09/26 09:23:46;;;;;;;23.70;17.87;;;19.20;91.60;;;;;;4968259;28;20089;-61
2021/09/26 09:26:12;;;;;;;22.33;16.02;;;19.30;91.60;;;;;;4966161;28;20391;-61
2021/09/26 09:28:39;;;;;;;20.38;16.02;;;19.40;91.60;;;;;;4956840;28;20054;-61
2021/09/26 09:31:09;;;;;;;19.98;16.17;;;19.50;91.40;;;;;;4954005;28;20066;-61
2021/09/26 09:33:41;;;;;;;20.08;15.52;;;19.60;91.20;;;;;;4961599;28;20047;-62
2021/09/26 09:36:23;;;;;;;21.05;15.60;;;19.70;91.20;;;;;;4959652;28;20651;-62
2021/09/26 09:38:56;;;;;;;19.17;14.70;;;19.70;90.90;;;;;;4961401;28;20387;-62
2021/09/26 09:41:42;;;;;;;18.23;14.98;;;19.90;90.70;;;;;;4958007;28;20133;-62
2021/09/26 09:44:10;;;;;;;18.52;14.00;;;20.00;90.70;;;;;;4957524;28;20105;-62
2021/09/26 09:46:39;;;;;;;21.00;14.98;;;20.10;90.70;;;;;;4963765;28;20042;-62
2021/09/26 09:49:17;;;;;;;19.33;15.45;;;20.20;90.50;;;;;;4997829;28;20057;-62
2021/09/26 09:51:47;;;;;;;17.58;14.48;;;20.30;90.30;;;;;;4963838;28;20480;-61
2021/09/26 09:54:14;;;;;;;15.63;13.00;;;20.50;90.30;;;;;;4966849;28;20493;-62
2021/09/26 09:56:43;;;;;;;21.88;14.25;;;20.70;90.10;;;;;;4964071;28;20137;-62
2021/09/26 09:59:11;;;;;;;14.85;13.13;;;20.90;89.00;;;;;;4963513;28;20090;-62
2021/09/26 10:01:39;;;;;;;15.35;13.57;;;21.20;88.80;;;;;;4958639;28;20081;-61
2021/09/26 10:04:09;;;;;;;14.93;10.88;;;21.30;87.70;;;;;;4964469;28;20561;-61
2021/09/26 10:06:41;;;;;;;14.98;11.00;;;21.40;85.80;;;;;;4963252;28;20303;-62
2021/09/26 10:09:24;;;;;;;14.75;10.65;;;21.30;86.60;;;;;;4956902;28;20487;-62
2021/09/26 10:11:59;;;;;;;15.00;9.32;;;21.30;86.30;;;;;;4960301;28;20063;-62
2021/09/26 10:14:27;;;;;;;13.38;8.63;;;21.20;86.50;;;;;;4964490;28;20330;-62
2021/09/26 10:16:57;;;;;;;12.32;8.35;;;21.10;86.40;;;;;;4962421;28;20058;-62
2021/09/26 10:19:25;;;;;;;10.65;8.60;;;21.00;86.70;;;;;;4965025;28;20087;-62
2021/09/26 10:21:54;;;;;;;12.73;8.15;;;21.00;87.40;;;;;;4994407;28;20102;-62
2021/09/26 10:24:26;;;;;;;8.88;7.07;;;21.00;87.70;;;;;;4961219;28;20076;-62
2021/09/26 10:26:53;;;;;;;11.02;7.50;;;21.00;87.60;;;;;;4964311;28;20077;-62
2021/09/26 10:29:21;;;;;;;16.05;8.00;;;21.10;87.30;;;;;;4963527;28;20047;-62
2021/09/26 10:31:49;;;;;;;13.73;8.20;;;21.00;86.40;;;;;;4958540;28;20046;-62
2021/09/26 10:34:17;;;;;;;8.70;7.30;;;21.00;86.80;;;;;;4960224;28;20138;-61
2021/09/26 10:36:44;;;;;;;14.05;7.85;;;20.90;87.10;;;;;;4959368;28;20116;-61
2021/09/26 10:39:11;;;;;;;11.85;7.88;;;21.00;86.70;;;;;;4935590;28;20811;-62
2021/09/26 10:42:04;;;;;;;10.73;7.90;;;21.00;86.60;;;;;;4946215;28;20138;-62
2021/09/26 10:44:31;;;;;;;12.93;7.97;;;21.00;86.30;;;;;;4960396;28;20084;-62
2021/09/26 10:47:09;;;;;;;10.10;7.43;;;21.00;86.00;;;;;;4954368;28;20086;-62
2021/09/26 10:49:40;;;;;;;10.25;6.82;;;21.00;85.70;;;;;;4954534;28;20051;-60
2021/09/26 10:52:27;;;;;;;9.82;6.93;;;21.00;85.80;;;;;;4946321;28;20143;-61
2021/09/26 10:54:54;;;;;;;9.07;7.00;;;21.10;85.70;;;;;;4963946;28;20514;-62
2021/09/26 10:57:23;;;;;;;7.82;6.85;;;21.20;86.40;;;;;;4962685;28;20137;-62
2021/09/26 10:59:55;;;;;;;7.68;6.63;;;21.30;85.20;;;;;;4946673;28;20142;-61
2021/09/26 11:02:28;;;;;;;10.00;5.93;;;21.30;84.30;;;;;;4963057;28;20093;-62
2021/09/26 11:04:59;;;;;;;10.60;5.93;;;21.40;84.60;;;;;;4950428;28;20102;-62
2021/09/26 11:07:27;;;;;;;8.15;6.07;;;21.60;83.30;;;;;;4963093;28;20568;-62
2021/09/26 11:09:56;;;;;;;8.20;5.20;;;21.80;83.40;;;;;;4963487;28;20133;-61
2021/09/26 11:12:42;;;;;;;6.18;5.30;;;22.00;82.80;;;;;;4960404;28;20078;-62
2021/09/26 11:15:16;;;;;;;8.63;5.47;;;22.00;80.50;;;;;;4953416;28;20106;-61
2021/09/26 11:17:47;;;;;;;7.28;5.72;;;22.10;80.70;;;;;;4956643;28;20078;-62
2021/09/26 11:20:29;;;;;;;7.93;6.03;;;22.10;81.30;;;;;;4982009;28;20074;-62
2021/09/26 11:23:05;;;;;;;6.28;5.55;;;22.10;80.30;;;;;;4958504;28;20085;-62
2021/09/26 11:25:57;;;;;;;6.35;4.78;;;21.90;80.60;;;;;;4955052;28;20058;-62
2021/09/26 11:28:24;;;;;;;10.45;5.45;;;21.80;81.40;;;;;;4957487;28;20413;-62
2021/09/26 11:30:51;;;;;;;8.38;5.65;;;21.80;82.40;;;;;;4942556;28;20055;-62
2021/09/26 11:33:18;;;;;;;10.52;6.05;;;21.70;82.10;;;;;;4950837;28;20133;-62
2021/09/26 11:35:45;;;;;;;7.35;5.55;;;21.70;81.60;;;;;;4963130;28;20094;-61
2021/09/26 11:38:17;;;;;;;11.93;6.95;;;21.70;82.60;;;;;;4954062;28;20316;-61
2021/09/26 11:40:51;;;;;;;11.55;5.75;;;21.70;82.30;;;;;;4958626;28;20142;-61
2021/09/26 11:43:23;;;;;;;7.65;5.65;;;21.70;81.60;;;;;;4951462;28;20139;-61
2021/09/26 11:45:50;;;;;;;6.57;5.63;;;21.70;82.40;;;;;;4954455;28;20466;-61
2021/09/26 11:48:17;;;;;;;6.47;5.18;;;21.70;82.40;;;;;;4953092;28;20134;-61
2021/09/26 11:50:45;;;;;;;11.18;5.60;;;21.60;82.60;;;;;;4953806;28;20471;-61
2021/09/26 11:53:13;;;;;;;9.10;5.15;;;21.60;83.20;;;;;;4957969;28;20211;-60
2021/09/26 11:55:41;;;;;;;7.75;5.35;;;21.60;82.90;;;;;;4954745;28;20506;-60
2021/09/26 11:58:09;;;;;;;8.13;5.25;;;21.70;82.60;;;;;;4959744;28;20043;-61
2021/09/26 12:00:40;;;;;;;6.25;5.20;;;21.80;82.40;;;;;;4947597;28;20113;-62
2021/09/26 12:03:19;;;;;;;7.25;4.93;;;22.00;82.10;;;;;;4964031;28;20483;-60
2021/09/26 12:05:46;;;;;;;6.00;5.07;;;22.10;80.00;;;;;;4967748;28;20141;-60
2021/09/26 12:08:12;;;;;;;9.60;5.63;;;22.10;81.20;;;;;;4960041;28;20042;-60
2021/09/26 12:10:40;;;;;;;10.23;6.13;;;22.10;80.70;;;;;;4955147;28;20483;-60
2021/09/26 12:13:15;;;;;;;8.45;5.75;;;22.00;80.00;;;;;;4966224;28;20113;-61
2021/09/26 12:15:42;;;;;;;11.45;5.68;;;21.90;79.70;;;;;;4966902;28;20093;-61
2021/09/26 12:18:28;;;;;;;8.23;5.95;;;21.80;80.20;;;;;;4961337;28;20101;-61
2021/09/26 12:21:06;;;;;;;7.57;5.45;;;21.80;80.80;;;;;;4939565;28;20093;-60
2021/09/26 12:23:51;;;;;;;11.30;5.68;;;21.80;80.90;;;;;;4962037;28;20863;-61
2021/09/26 12:26:28;;;;;;;7.55;5.68;;;21.70;80.30;;;;;;4956334;28;20700;-61
2021/09/26 12:29:01;;;;;;;7.85;5.68;;;21.60;81.90;;;;;;4962449;28;20061;-60
2021/09/26 12:31:28;;;;;;;9.60;5.88;;;21.50;81.00;;;;;;4949040;28;20083;-60
2021/09/26 12:33:55;;;;;;;9.23;5.45;;;21.40;81.50;;;;;;4958251;28;20853;-60
2021/09/26 12:36:23;;;;;;;12.55;6.88;;;21.30;82.10;;;;;;4955376;28;20169;-60
2021/09/26 12:38:54;;;;;;;8.95;5.53;;;21.20;82.60;;;;;;4954966;28;20138;-61
2021/09/26 12:41:22;;;;;;;8.75;5.47;;;21.20;83.00;;;;;;4974011;28;20554;-61